createdAt,value
2018-11-07T00:01:34.731Z,24.70
2018-11-07T00:04:03.185Z,22.53
2018-11-07T00:06:31.612Z,22.20
2018-11-07T00:08:59.988Z,22.60
2018-11-07T00:11:28.300Z,22.30
2018-11-07T00:13:56.692Z,23.13
2018-11-07T00:16:25.099Z,21.30
2018-11-07T00:18:53.408Z,22.00
2018-11-07T00:21:21.776Z,20.63
2018-11-07T00:23:50.161Z,21.07
2018-11-07T00:26:18.658Z,22.60
2018-11-07T00:28:47.128Z,23.30
2018-11-07T00:31:15.617Z,20.90
2018-11-07T00:33:44.580Z,21.83
2018-11-07T00:36:12.966Z,22.47
2018-11-07T00:38:41.415Z,22.27
2018-11-07T00:41:16.402Z,23.87
2018-11-07T00:43:44.797Z,23.53
2018-11-07T00:46:13.139Z,21.83
2018-11-07T00:48:41.551Z,19.73
2018-11-07T00:51:09.919Z,22.40
2018-11-07T00:53:38.271Z,22.77
2018-11-07T00:56:07.482Z,21.40
2018-11-07T00:58:35.772Z,21.50
2018-11-07T01:01:04.153Z,20.73
2018-11-07T01:03:32.499Z,22.60
2018-11-07T01:06:00.915Z,26.63
2018-11-07T01:08:29.218Z,21.07
2018-11-07T01:10:57.635Z,23.50
2018-11-07T01:13:26.050Z,22.27
2018-11-07T01:15:54.437Z,21.60
2018-11-07T01:18:22.830Z,22.47
2018-11-07T01:20:51.205Z,22.40
2018-11-07T01:23:19.680Z,23.13
2018-11-07T01:25:48.038Z,20.57
2018-11-07T01:28:16.485Z,21.97
2018-11-07T01:30:44.817Z,22.87
2018-11-07T01:33:13.171Z,22.73
2018-11-07T01:35:41.531Z,23.03
2018-11-07T01:38:10.032Z,22.13
2018-11-07T01:40:38.469Z,22.83
2018-11-07T01:43:06.848Z,21.73
2018-11-07T01:45:35.139Z,23.33
2018-11-07T01:48:03.563Z,21.73
2018-11-07T01:50:31.880Z,22.90
2018-11-07T01:53:00.183Z,21.80
2018-11-07T01:55:28.540Z,23.30
2018-11-07T01:57:57.067Z,21.37
2018-11-07T02:00:25.500Z,22.70
2018-11-07T02:02:54.107Z,23.70
2018-11-07T02:05:22.452Z,21.53
2018-11-07T02:07:50.780Z,22.07
2018-11-07T02:10:19.150Z,22.80
2018-11-07T02:12:47.555Z,23.23
2018-11-07T02:15:15.956Z,22.90
2018-11-07T02:17:44.332Z,22.00
2018-11-07T02:20:13.055Z,23.83
2018-11-07T02:22:42.090Z,21.00
2018-11-07T02:25:10.524Z,21.53
2018-11-07T02:27:39.258Z,22.57
2018-11-07T02:30:10.056Z,21.10
2018-11-07T02:32:38.404Z,20.37
2018-11-07T02:35:06.716Z,20.47
2018-11-07T02:37:35.225Z,21.33
2018-11-07T02:40:03.664Z,21.27
2018-11-07T02:42:32.143Z,20.03
2018-11-07T02:45:00.543Z,18.80
2018-11-07T02:47:28.987Z,21.27
2018-11-07T02:49:57.365Z,19.07
2018-11-07T02:52:25.724Z,21.07
2018-11-07T02:54:54.031Z,18.30
2018-11-07T02:57:22.475Z,23.00
2018-11-07T02:59:50.877Z,19.70
2018-11-07T03:02:19.256Z,18.40
2018-11-07T03:04:47.671Z,20.57
2018-11-07T03:07:16.033Z,19.50
2018-11-07T03:09:44.392Z,17.97
2018-11-07T03:12:12.747Z,18.40
2018-11-07T03:14:41.060Z,19.60
2018-11-07T03:17:09.429Z,17.67
2018-11-07T03:19:37.823Z,17.53
2018-11-07T03:22:06.548Z,18.20
2018-11-07T03:24:34.909Z,17.40
2018-11-07T03:27:03.281Z,17.00
2018-11-07T03:29:31.667Z,16.60
2018-11-07T03:32:00.037Z,16.70
2018-11-07T03:34:28.357Z,16.40
2018-11-07T03:36:56.697Z,17.87
2018-11-07T03:39:25.021Z,17.13
2018-11-07T03:41:53.390Z,17.70
2018-11-07T03:44:21.723Z,18.10
2018-11-07T03:46:50.203Z,16.80
2018-11-07T03:49:18.624Z,17.33
2018-11-07T03:51:47.016Z,16.63
2018-11-07T03:54:15.308Z,15.60
2018-11-07T03:56:43.603Z,15.90
2018-11-07T03:59:11.962Z,16.30
2018-11-07T04:01:40.313Z,16.63
2018-11-07T04:04:08.704Z,16.87
2018-11-07T04:06:37.032Z,16.77
2018-11-07T04:09:08.611Z,15.73
2018-11-07T04:11:37.004Z,15.30
2018-11-07T04:14:05.923Z,15.03
2018-11-07T04:16:34.299Z,16.00
2018-11-07T04:19:02.679Z,15.70
2018-11-07T04:21:31.067Z,16.40
2018-11-07T04:24:01.586Z,16.53
2018-11-07T04:26:30.756Z,13.57
2018-11-07T04:28:59.147Z,15.47
2018-11-07T04:31:27.433Z,14.57
2018-11-07T04:33:55.736Z,14.97
2018-11-07T04:36:24.488Z,14.90
2018-11-07T04:38:53.131Z,15.20
2018-11-07T04:41:21.487Z,13.50
2018-11-07T04:43:49.824Z,14.10
2018-11-07T04:46:18.211Z,15.43
2018-11-07T04:48:46.599Z,13.07
2018-11-07T04:51:15.544Z,14.13
2018-11-07T04:53:43.956Z,13.67
2018-11-07T04:56:12.443Z,12.73
2018-11-07T04:58:40.784Z,13.57
2018-11-07T05:01:12.333Z,13.27
2018-11-07T05:03:40.753Z,13.60
2018-11-07T05:06:09.123Z,13.83
2018-11-07T05:08:37.774Z,11.33
2018-11-07T05:11:06.259Z,12.63
2018-11-07T05:13:34.838Z,13.60
2018-11-07T05:16:03.219Z,12.30
2018-11-07T05:18:31.579Z,13.53
2018-11-07T05:20:59.989Z,12.33
2018-11-07T05:23:28.441Z,13.60
2018-11-07T05:25:56.875Z,12.30
2018-11-07T05:28:25.243Z,13.30
2018-11-07T05:30:53.679Z,12.20
2018-11-07T05:33:22.118Z,12.33
2018-11-07T05:35:50.465Z,14.80
2018-11-07T05:38:18.878Z,13.33
2018-11-07T05:40:47.262Z,12.07
2018-11-07T05:43:15.636Z,11.67
2018-11-07T05:45:44.006Z,12.43
2018-11-07T05:48:12.581Z,12.77
2018-11-07T05:50:40.952Z,15.43
2018-11-07T05:53:09.432Z,12.43
2018-11-07T05:55:37.862Z,11.43
2018-11-07T05:58:06.385Z,15.37
2018-11-07T06:00:34.751Z,13.43
2018-11-07T06:03:03.131Z,19.40
2018-11-07T06:05:31.479Z,14.07
2018-11-07T06:07:59.861Z,15.87
2018-11-07T06:10:28.296Z,15.13
2018-11-07T06:12:56.712Z,16.53
2018-11-07T06:15:25.273Z,18.10
2018-11-07T06:17:53.554Z,18.27
2018-11-07T06:20:21.848Z,17.67
2018-11-07T06:22:50.253Z,19.33
2018-11-07T06:25:18.598Z,17.50
2018-11-07T06:27:47.030Z,18.47
2018-11-07T06:30:15.469Z,19.27
2018-11-07T06:32:44.032Z,17.73
2018-11-07T06:35:12.359Z,18.63
2018-11-07T06:37:40.918Z,19.90
2018-11-07T06:40:10.658Z,20.13
2018-11-07T06:42:39.154Z,18.63
2018-11-07T06:45:08.350Z,21.63
2018-11-07T06:47:36.666Z,19.73
2018-11-07T06:50:06.292Z,19.03
2018-11-07T06:52:34.654Z,21.10
2018-11-07T06:55:03.034Z,20.37
2018-11-07T06:57:31.388Z,23.90
2018-11-07T06:59:59.734Z,23.73
2018-11-07T07:02:28.043Z,22.53
2018-11-07T07:04:56.362Z,25.10
2018-11-07T07:07:24.825Z,20.00
2018-11-07T07:09:53.129Z,28.43
2018-11-07T07:12:21.486Z,39.40
2018-11-07T07:14:49.847Z,20.17
2018-11-07T07:17:18.187Z,23.03
2018-11-07T07:19:46.488Z,24.27
2018-11-07T07:22:14.870Z,23.20
2018-11-07T07:24:43.269Z,25.80
2018-11-07T07:27:11.634Z,21.73
2018-11-07T07:29:39.983Z,19.93
2018-11-07T07:32:08.427Z,20.57
2018-11-07T07:34:36.812Z,16.63
2018-11-07T07:37:05.764Z,17.17
2018-11-07T07:39:34.241Z,17.30
2018-11-07T07:42:02.820Z,18.23
2018-11-07T07:44:31.305Z,18.50
2018-11-07T07:46:59.740Z,17.20
2018-11-07T07:49:28.139Z,17.20
2018-11-07T07:51:56.563Z,16.73
2018-11-07T07:54:24.944Z,18.50
2018-11-07T07:56:53.303Z,17.50
2018-11-07T07:59:21.685Z,17.43
2018-11-07T08:01:50.200Z,19.13
2018-11-07T08:04:18.768Z,18.80
2018-11-07T08:06:47.292Z,18.37
2018-11-07T08:09:16.117Z,17.10
2018-11-07T08:11:44.504Z,19.60
2018-11-07T08:14:12.824Z,17.77
2018-11-07T08:16:41.260Z,19.13
2018-11-07T08:19:10.098Z,20.60
2018-11-07T08:21:38.521Z,25.63
2018-11-07T08:24:06.893Z,21.30
2018-11-07T08:26:35.495Z,23.87
2018-11-07T08:29:04.051Z,25.17
2018-11-07T08:31:32.740Z,35.47
2018-11-07T08:34:01.128Z,24.43
2018-11-07T08:36:29.584Z,24.93
2018-11-07T08:38:57.933Z,25.27
2018-11-07T08:41:26.417Z,24.03
2018-11-07T08:43:54.774Z,25.57
2018-11-07T08:46:23.124Z,23.40
2018-11-07T08:48:51.532Z,28.67
2018-11-07T08:51:19.952Z,24.60
2018-11-07T08:53:48.409Z,21.70
2018-11-07T08:56:16.728Z,24.10
2018-11-07T08:58:45.136Z,25.20
2018-11-07T09:01:13.586Z,26.63
2018-11-07T09:03:41.863Z,21.77
2018-11-07T09:06:10.264Z,23.90
2018-11-07T09:08:38.716Z,23.57
2018-11-07T09:11:07.192Z,21.97
2018-11-07T09:13:35.614Z,23.43
2018-11-07T09:16:04.003Z,23.03
2018-11-07T09:18:32.456Z,23.57
2018-11-07T09:21:00.818Z,23.40
2018-11-07T09:23:29.223Z,22.57
2018-11-07T09:25:57.720Z,22.50
2018-11-07T09:28:26.173Z,22.97
2018-11-07T09:30:54.537Z,21.47
2018-11-07T09:33:22.961Z,23.07
2018-11-07T09:35:51.384Z,22.27
2018-11-07T09:38:19.775Z,24.77
2018-11-07T09:40:48.121Z,22.13
2018-11-07T09:43:16.481Z,23.40
2018-11-07T09:45:44.861Z,23.83
2018-11-07T09:48:13.233Z,21.63
2018-11-07T09:50:41.794Z,22.83
2018-11-07T09:53:10.167Z,22.63
2018-11-07T09:55:38.511Z,22.33
2018-11-07T09:58:06.845Z,21.27
2018-11-07T10:00:35.193Z,21.53
2018-11-07T10:03:03.530Z,23.00
2018-11-07T10:05:31.977Z,23.23
2018-11-07T10:08:00.353Z,25.33
2018-11-07T10:10:28.782Z,22.03
2018-11-07T10:12:57.106Z,23.13
2018-11-07T10:15:25.492Z,25.13
2018-11-07T10:17:53.884Z,22.53
2018-11-07T10:20:23.211Z,23.17
2018-11-07T10:22:51.576Z,24.27
2018-11-07T10:25:20.167Z,25.87
2018-11-07T10:27:48.819Z,26.40
2018-11-07T10:30:18.337Z,25.67
2018-11-07T10:32:47.673Z,25.17
2018-11-07T10:35:16.168Z,26.10
2018-11-07T10:37:44.666Z,27.30
2018-11-07T10:40:15.440Z,27.77
2018-11-07T10:42:43.956Z,26.00
2018-11-07T10:45:12.750Z,32.70
2018-11-07T10:47:41.540Z,29.37
2018-11-07T10:50:11.309Z,35.77
2018-11-07T10:52:40.503Z,29.70
2018-11-07T10:55:09.513Z,31.00
2018-11-07T10:57:38.117Z,27.37
2018-11-07T11:00:12.793Z,25.00
2018-11-07T11:02:47.318Z,25.17
2018-11-07T11:05:17.337Z,24.67
2018-11-07T11:07:45.750Z,22.93
2018-11-07T11:10:14.455Z,23.37
2018-11-07T11:12:43.992Z,22.47
2018-11-07T11:15:12.439Z,20.63
2018-11-07T11:17:40.883Z,19.30
2018-11-07T11:20:11.091Z,17.20
2018-11-07T11:22:39.416Z,18.37
2018-11-07T11:25:07.799Z,18.37
2018-11-07T11:27:36.285Z,16.97
2018-11-07T11:30:05.328Z,16.07
2018-11-07T11:32:33.800Z,14.37
2018-11-07T11:35:02.743Z,14.77
2018-11-07T11:37:31.089Z,15.93
2018-11-07T11:39:59.506Z,14.17
2018-11-07T11:42:27.887Z,17.57
2018-11-07T11:45:16.494Z,16.00
2018-11-07T11:47:52.796Z,18.53
2018-11-07T11:50:21.691Z,18.30
2018-11-07T11:52:50.344Z,17.83
2018-11-07T11:55:18.777Z,17.70
2018-11-07T11:57:47.572Z,17.93
2018-11-07T12:00:17.218Z,16.70
2018-11-07T12:02:46.125Z,16.30
2018-11-07T12:05:15.517Z,14.73
2018-11-07T12:07:44.046Z,16.13
2018-11-07T12:10:17.831Z,16.23
2018-11-07T12:12:48.567Z,15.93
2018-11-07T12:15:18.000Z,16.80
2018-11-07T12:17:46.492Z,13.90
2018-11-07T12:20:14.757Z,12.33
2018-11-07T12:22:44.103Z,12.03
2018-11-07T12:25:13.601Z,11.37
2018-11-07T12:27:42.412Z,11.90
2018-11-07T12:30:13.963Z,11.27
2018-11-07T12:32:43.464Z,11.17
2018-11-07T12:35:11.963Z,11.50
2018-11-07T12:37:40.661Z,10.13
2018-11-07T12:40:09.729Z,9.20
2018-11-07T12:42:38.219Z,10.10
2018-11-07T12:45:08.145Z,10.37
2018-11-07T12:47:36.540Z,11.17
2018-11-07T12:50:05.813Z,10.43
2018-11-07T12:52:34.127Z,11.13
2018-11-07T12:55:02.514Z,11.00
2018-11-07T12:57:30.958Z,10.87
2018-11-07T12:59:59.384Z,10.60
2018-11-07T13:02:27.757Z,10.03
2018-11-07T13:04:56.080Z,9.33
2018-11-07T13:07:24.458Z,9.07
2018-11-07T13:09:52.838Z,9.37
2018-11-07T13:12:21.140Z,7.80
2018-11-07T13:14:49.596Z,7.37
2018-11-07T13:17:18.059Z,7.50
2018-11-07T13:19:46.394Z,8.03
2018-11-07T13:22:14.835Z,7.87
2018-11-07T13:24:43.167Z,8.47
2018-11-07T13:27:11.644Z,7.93
2018-11-07T13:29:40.032Z,7.40
2018-11-07T13:32:08.467Z,8.30
2018-11-07T13:34:36.852Z,8.67
2018-11-07T13:37:05.343Z,7.17
2018-11-07T13:39:33.627Z,7.60
2018-11-07T13:42:01.912Z,7.70
2018-11-07T13:44:30.296Z,7.40
2018-11-07T13:46:58.608Z,8.00
2018-11-07T13:49:27.044Z,7.00
2018-11-07T13:51:55.363Z,7.90
2018-11-07T13:54:23.798Z,7.80
2018-11-07T13:56:52.156Z,9.93
2018-11-07T13:59:20.497Z,7.40
2018-11-07T14:01:48.771Z,8.17
2018-11-07T14:04:17.200Z,7.77
2018-11-07T14:06:45.561Z,7.73
2018-11-07T14:09:13.950Z,9.00
2018-11-07T14:11:42.414Z,8.20
2018-11-07T14:14:10.831Z,7.13
2018-11-07T14:16:39.402Z,7.27
2018-11-07T14:19:07.908Z,7.37
2018-11-07T14:21:36.202Z,6.60
2018-11-07T14:24:04.736Z,7.27
2018-11-07T14:26:33.257Z,7.57
2018-11-07T14:29:01.658Z,7.07
2018-11-07T14:31:30.093Z,7.53
2018-11-07T14:33:58.522Z,6.93
2018-11-07T14:36:27.031Z,6.80
2018-11-07T14:38:55.416Z,7.83
2018-11-07T14:41:23.733Z,7.00
2018-11-07T14:43:52.172Z,7.37
2018-11-07T14:46:20.555Z,10.07
2018-11-07T14:48:48.823Z,7.40
2018-11-07T14:51:17.236Z,6.80
2018-11-07T14:53:45.655Z,7.33
2018-11-07T14:56:13.959Z,7.70
2018-11-07T14:58:42.324Z,6.77
2018-11-07T15:01:10.652Z,7.43
2018-11-07T15:03:39.000Z,9.07
2018-11-07T15:06:07.400Z,8.87
2018-11-07T15:08:36.826Z,10.90
2018-11-07T15:11:05.522Z,10.13
2018-11-07T15:13:33.773Z,7.67
2018-11-07T15:16:02.211Z,10.63
2018-11-07T15:18:30.618Z,9.33
2018-11-07T15:20:58.991Z,8.00
2018-11-07T15:23:27.346Z,10.43
2018-11-07T15:25:55.678Z,10.90
2018-11-07T15:28:24.052Z,8.90
2018-11-07T15:30:52.430Z,8.77
2018-11-07T15:33:20.789Z,11.80
2018-11-07T15:35:49.143Z,14.83
2018-11-07T15:38:17.432Z,12.07
2018-11-07T15:40:45.815Z,7.87
2018-11-07T15:43:14.243Z,11.40
2018-11-07T15:45:42.604Z,8.67
2018-11-07T15:48:11.033Z,9.20
2018-11-07T15:50:44.576Z,17.23
2018-11-07T15:53:12.949Z,8.57
2018-11-07T15:55:41.275Z,11.27
2018-11-07T15:58:09.620Z,8.63
2018-11-07T16:00:38.007Z,13.10
2018-11-07T16:03:06.386Z,10.23
2018-11-07T16:05:34.689Z,10.57
2018-11-07T16:08:03.055Z,12.07
2018-11-07T16:10:31.407Z,12.03
2018-11-07T16:12:59.762Z,8.83
2018-11-07T16:15:28.237Z,9.67
2018-11-07T16:17:56.471Z,10.63
2018-11-07T16:20:24.847Z,9.47
2018-11-07T16:22:53.267Z,9.40
2018-11-07T16:25:21.532Z,9.83
2018-11-07T16:27:49.846Z,8.10
2018-11-07T16:30:19.499Z,8.97
2018-11-07T16:32:47.846Z,6.07
2018-11-07T16:35:16.462Z,11.93
2018-11-07T16:37:44.887Z,7.20
2018-11-07T16:40:14.577Z,7.63
2018-11-07T16:42:43.659Z,9.27
2018-11-07T16:45:12.916Z,10.83
2018-11-07T16:47:41.333Z,7.60
2018-11-07T16:50:10.927Z,8.13
2018-11-07T16:52:39.339Z,7.13
2018-11-07T16:55:07.916Z,7.30
2018-11-07T16:57:36.776Z,9.73
2018-11-07T17:00:07.978Z,6.90
2018-11-07T17:02:36.303Z,6.40
2018-11-07T17:05:05.021Z,6.30
2018-11-07T17:07:33.297Z,7.00
2018-11-07T17:10:01.804Z,7.00
2018-11-07T17:12:30.179Z,7.70
2018-11-07T17:14:58.501Z,7.10
2018-11-07T17:17:28.152Z,7.83
2018-11-07T17:19:56.622Z,6.80
2018-11-07T17:22:24.956Z,7.50
2018-11-07T17:24:53.291Z,6.77
2018-11-07T17:27:21.625Z,7.73
2018-11-07T17:29:49.962Z,7.03
2018-11-07T17:32:18.537Z,6.83
2018-11-07T17:34:46.931Z,6.80
2018-11-07T17:37:15.366Z,7.73
2018-11-07T17:39:43.653Z,7.10
2018-11-07T17:42:12.053Z,6.50
2018-11-07T17:44:40.758Z,7.43
2018-11-07T17:47:09.204Z,10.23
2018-11-07T17:49:37.559Z,9.17
2018-11-07T17:52:07.159Z,7.67
2018-11-07T17:54:36.686Z,8.03
2018-11-07T17:57:06.309Z,13.43
2018-11-07T17:59:35.741Z,7.97
2018-11-07T18:02:04.131Z,5.37
2018-11-07T18:04:32.517Z,6.43
2018-11-07T18:07:00.840Z,7.40
2018-11-07T18:09:29.276Z,7.00
2018-11-07T18:11:57.580Z,8.63
2018-11-07T18:14:25.955Z,9.50
2018-11-07T18:16:54.427Z,7.63
2018-11-07T18:19:22.775Z,10.27
2018-11-07T18:21:51.152Z,6.20
2018-11-07T18:24:19.497Z,6.90
2018-11-07T18:26:47.860Z,6.70
2018-11-07T18:29:16.318Z,9.40
2018-11-07T18:31:44.650Z,9.80
2018-11-07T18:34:13.558Z,8.13
2018-11-07T18:36:41.913Z,10.40
2018-11-07T18:39:11.575Z,8.33
2018-11-07T18:41:40.221Z,8.53
2018-11-07T18:44:08.682Z,7.90
2018-11-07T18:46:37.023Z,7.57
2018-11-07T18:49:05.325Z,8.97
2018-11-07T18:51:33.739Z,9.70
2018-11-07T18:54:02.081Z,8.13
2018-11-07T18:56:33.464Z,7.53
2018-11-07T18:59:01.873Z,19.20
2018-11-07T19:01:30.209Z,10.53
2018-11-07T19:03:58.535Z,9.80
2018-11-07T19:06:26.968Z,6.73
2018-11-07T19:08:55.304Z,7.23
2018-11-07T19:11:23.725Z,7.90
2018-11-07T19:13:52.271Z,7.30
2018-11-07T19:16:20.739Z,6.53
2018-11-07T19:18:49.201Z,9.20
2018-11-07T19:21:17.580Z,8.70
2018-11-07T19:23:46.040Z,8.47
2018-11-07T19:26:14.434Z,9.00
2018-11-07T19:28:42.866Z,7.40
2018-11-07T19:31:11.330Z,8.67
2018-11-07T19:33:39.713Z,8.27
2018-11-07T19:36:08.227Z,8.17
2018-11-07T19:38:36.671Z,7.27
2018-11-07T19:41:05.409Z,9.10
2018-11-07T19:43:33.898Z,8.60
2018-11-07T19:46:02.431Z,8.40
2018-11-07T19:48:30.837Z,8.10
2018-11-07T19:50:59.266Z,9.03
2018-11-07T19:53:27.711Z,7.70
2018-11-07T19:55:56.053Z,7.10
2018-11-07T19:58:24.509Z,8.47
2018-11-07T20:00:53.669Z,9.23
2018-11-07T20:03:22.073Z,8.70
2018-11-07T20:05:50.473Z,7.60
2018-11-07T20:08:18.936Z,7.43
2018-11-07T20:10:47.393Z,8.30
2018-11-07T20:13:15.793Z,7.00
2018-11-07T20:15:44.169Z,7.03
2018-11-07T20:18:12.581Z,7.90
2018-11-07T20:20:41.031Z,10.20
2018-11-07T20:23:09.531Z,7.67
2018-11-07T20:25:37.935Z,7.87
2018-11-07T20:28:06.728Z,7.37
2018-11-07T20:30:35.196Z,7.80
2018-11-07T20:33:04.380Z,10.10
2018-11-07T20:35:32.760Z,8.37
2018-11-07T20:38:01.227Z,7.80
2018-11-07T20:40:29.676Z,10.07
2018-11-07T20:42:58.029Z,7.90
2018-11-07T20:45:26.549Z,8.10
2018-11-07T20:47:55.091Z,7.17
2018-11-07T20:50:23.512Z,7.40
2018-11-07T20:52:51.969Z,9.37
2018-11-07T20:55:20.268Z,8.40
2018-11-07T20:57:48.742Z,9.83
2018-11-07T21:00:19.318Z,8.43
2018-11-07T21:02:48.858Z,11.33
2018-11-07T21:05:17.375Z,7.13
2018-11-07T21:07:45.745Z,7.73
2018-11-07T21:10:16.785Z,7.33
2018-11-07T21:12:45.677Z,8.27
2018-11-07T21:15:15.321Z,7.83
2018-11-07T21:17:44.332Z,7.83
2018-11-07T21:20:12.720Z,6.20
2018-11-07T21:22:41.523Z,6.97
2018-11-07T21:25:09.994Z,8.60
2018-11-07T21:27:38.428Z,6.60
2018-11-07T21:30:10.747Z,7.80
2018-11-07T21:32:39.492Z,6.87
2018-11-07T21:35:08.109Z,8.43
2018-11-07T21:37:36.598Z,8.17
2018-11-07T21:40:06.604Z,9.33
2018-11-07T21:42:34.976Z,7.83
2018-11-07T21:45:03.427Z,7.83
2018-11-07T21:47:31.844Z,8.00
2018-11-07T21:50:00.352Z,6.70
2018-11-07T21:52:28.734Z,7.23
2018-11-07T21:54:57.181Z,7.93
2018-11-07T21:57:25.626Z,7.67
2018-11-07T21:59:54.137Z,6.73
2018-11-07T22:02:22.498Z,7.40
2018-11-07T22:04:51.129Z,6.93
2018-11-07T22:07:19.506Z,7.67
2018-11-07T22:09:47.865Z,5.90
2018-11-07T22:12:16.219Z,6.27
2018-11-07T22:14:44.634Z,6.30
2018-11-07T22:17:12.914Z,8.37
2018-11-07T22:19:41.356Z,7.00
2018-11-07T22:22:09.696Z,6.97
2018-11-07T22:24:38.070Z,7.40
2018-11-07T22:27:06.793Z,6.20
2018-11-07T22:29:35.197Z,6.20
2018-11-07T22:32:03.728Z,6.10
2018-11-07T22:34:32.099Z,6.20
2018-11-07T22:37:00.552Z,5.50
2018-11-07T22:39:28.921Z,7.13
2018-11-07T22:41:57.312Z,5.80
2018-11-07T22:44:25.620Z,6.90
2018-11-07T22:46:54.021Z,5.87
2018-11-07T22:49:22.311Z,6.27
2018-11-07T22:51:50.651Z,5.63
2018-11-07T22:54:19.066Z,4.43
2018-11-07T22:56:47.494Z,4.67
2018-11-07T22:59:15.930Z,4.57
2018-11-07T23:01:44.363Z,4.37
2018-11-07T23:04:12.910Z,4.20
2018-11-07T23:06:41.313Z,5.33
2018-11-07T23:09:12.373Z,3.70
2018-11-07T23:11:41.716Z,5.47
2018-11-07T23:14:11.580Z,5.10
2018-11-07T23:16:40.169Z,4.07
2018-11-07T23:19:08.788Z,3.17
2018-11-07T23:21:37.359Z,3.67
2018-11-07T23:24:06.353Z,3.33
2018-11-07T23:26:35.619Z,4.17
2018-11-07T23:29:04.167Z,3.03
2018-11-07T23:31:32.612Z,3.73
2018-11-07T23:34:01.782Z,3.60
2018-11-07T23:36:30.375Z,3.77
2018-11-07T23:38:58.750Z,3.97
2018-11-07T23:41:27.072Z,4.43
2018-11-07T23:43:55.470Z,4.00
2018-11-07T23:46:23.873Z,4.57
2018-11-07T23:48:52.292Z,4.43
2018-11-07T23:51:20.614Z,4.43
2018-11-07T23:53:48.980Z,3.57
2018-11-07T23:58:54.113Z,3.60
